Terminal Aerodrome Forecast
Issued by NWS Pueblo, CO

Home | Current Version | Previous Version | Text Only | Print | Product List | Glossary On
Versions: 1 2 3 4 5 6 7 8 9 10 11 12 13 14 15 16 17 18 19 20 21 22 23 24 25 26 27 28 29 30 31 32 33 34 35 36 37 38 39 40 41 42 43 44 45 46 47 48
000
FTUS45 KPUB 230539
TAFCOS
TAF
KCOS 230539Z 2306/2406 36015G25KT P6SM SCT200
     FM231000 01010KT P6SM SCT200
     FM231600 20012KT P6SM SCT200
     FM231800 26018G32KT P6SM SCT050 SCT200
     FM232100 33025G35KT P6SM VCSH BKN050
     FM240200 36015G25KT P6SM VCSH SCT030 BKN050=

USA.gov is the U.S. government's official web portal to all federal, state and local government web resources and services.